createdAt,value
2018-12-25T00:00:34.411Z,101494.25
2018-12-25T00:03:32.523Z,101492.46
2018-12-25T00:06:28.241Z,101495.34
2018-12-25T00:09:24.102Z,101497.39
2018-12-25T00:12:19.982Z,101497.26
2018-12-25T00:15:16.477Z,101494.83
2018-12-25T00:18:12.540Z,101485.81
2018-12-25T00:21:08.014Z,101492.59
2018-12-25T00:24:04.164Z,101502.76
2018-12-25T00:26:59.844Z,101500.06
2018-12-25T00:29:55.282Z,101504.94
2018-12-25T00:32:55.831Z,101504.95
2018-12-25T00:35:53.989Z,101512.70
2018-12-25T00:38:50.385Z,101512.55
2018-12-25T00:41:48.401Z,101511.20
2018-12-25T00:44:46.739Z,101513.16
2018-12-25T00:47:43.404Z,101515.50
2018-12-25T00:50:40.047Z,101511.02
2018-12-25T00:53:36.729Z,101517.80
2018-12-25T00:56:32.905Z,101520.94
2018-12-25T00:59:29.566Z,101517.05
2018-12-25T01:02:27.741Z,101514.08
2018-12-25T01:05:23.459Z,101501.41
2018-12-25T01:08:20.158Z,101497.75
2018-12-25T01:11:15.889Z,101503.06
2018-12-25T01:14:13.898Z,101500.03
2018-12-25T01:17:10.119Z,101503.69
2018-12-25T01:20:06.923Z,101507.13
2018-12-25T01:23:03.363Z,101511.62
2018-12-25T01:25:59.287Z,101508.09
2018-12-25T01:28:54.909Z,101513.88
2018-12-25T01:31:50.090Z,101513.22
2018-12-25T01:34:45.552Z,101519.31
2018-12-25T01:37:41.243Z,101507.28
2018-12-25T01:40:37.435Z,101526.41
2018-12-25T01:43:32.915Z,101516.80
2018-12-25T01:46:29.271Z,101528.17
2018-12-25T01:49:31.797Z,101530.58
2018-12-25T01:52:22.588Z,101531.86
2018-12-25T01:55:19.276Z,101534.44
2018-12-25T01:58:15.115Z,101528.67
2018-12-25T02:01:10.715Z,101528.46
2018-12-25T02:04:07.353Z,101526.17
2018-12-25T02:07:02.830Z,101527.63
2018-12-25T02:09:58.131Z,101525.55
2018-12-25T02:12:54.078Z,101523.71
2018-12-25T02:15:51.268Z,101533.01
2018-12-25T02:18:46.520Z,101527.63
2018-12-25T02:21:42.518Z,101538.53
2018-12-25T02:24:38.503Z,101529.26
2018-12-25T02:27:33.559Z,101526.32
2018-12-25T02:30:28.453Z,101523.20
2018-12-25T02:33:24.899Z,101524.12
2018-12-25T02:36:20.764Z,101523.41
2018-12-25T02:39:18.737Z,101519.88
2018-12-25T02:42:14.662Z,101513.06
2018-12-25T02:45:10.800Z,101504.20
2018-12-25T02:48:06.031Z,101505.00
2018-12-25T02:51:01.621Z,101504.84
2018-12-25T02:53:58.464Z,101501.94
2018-12-25T02:56:55.051Z,101498.71
2018-12-25T02:59:50.583Z,101501.16
2018-12-25T03:02:46.103Z,101495.23
2018-12-25T03:05:42.916Z,101500.92
2018-12-25T03:08:37.640Z,101493.52
2018-12-25T03:11:36.666Z,101483.63
2018-12-25T03:14:32.687Z,101486.05
2018-12-25T03:17:28.894Z,101498.83
2018-12-25T03:20:25.944Z,101483.12
2018-12-25T03:23:22.515Z,101479.39
2018-12-25T03:26:18.453Z,101477.42
2018-12-25T03:29:14.592Z,101473.30
2018-12-25T03:32:11.009Z,101471.30
2018-12-25T03:35:06.585Z,101449.91
2018-12-25T03:38:04.148Z,101467.48
2018-12-25T03:40:59.932Z,101463.13
2018-12-25T03:43:55.672Z,101454.98
2018-12-25T03:46:51.203Z,101460.34
2018-12-25T03:49:48.048Z,101452.56
2018-12-25T03:52:45.682Z,101459.05
2018-12-25T03:55:43.871Z,101457.01
2018-12-25T03:58:40.500Z,101452.17
2018-12-25T04:01:36.715Z,101461.27
2018-12-25T04:04:32.380Z,101453.29
2018-12-25T04:07:28.505Z,101458.20
2018-12-25T04:10:24.660Z,101455.91
2018-12-25T04:13:21.241Z,101450.50
2018-12-25T04:16:17.266Z,101449.98
2018-12-25T04:19:12.746Z,101442.38
2018-12-25T04:22:09.399Z,101445.47
2018-12-25T04:25:05.159Z,101451.41
2018-12-25T04:28:03.206Z,101445.56
2018-12-25T04:30:59.766Z,101453.95
2018-12-25T04:33:56.486Z,101461.89
2018-12-25T04:36:53.232Z,101479.12
2018-12-25T04:39:50.021Z,101479.55
2018-12-25T04:42:45.775Z,101487.84
2018-12-25T04:45:41.414Z,101466.84
2018-12-25T04:48:37.174Z,101481.97
2018-12-25T04:51:33.904Z,101486.11
2018-12-25T04:54:30.733Z,101489.84
2018-12-25T04:57:30.858Z,101482.14
2018-12-25T05:00:26.821Z,101483.80
2018-12-25T05:03:22.329Z,101486.34
2018-12-25T05:06:20.412Z,101484.47
2018-12-25T05:09:16.166Z,101485.75
2018-12-25T05:12:15.634Z,101478.11
2018-12-25T05:15:12.092Z,101485.89
2018-12-25T05:18:08.730Z,101484.17
2018-12-25T05:21:05.488Z,101487.08
2018-12-25T05:24:03.048Z,101487.25
2018-12-25T05:26:59.771Z,101483.64
2018-12-25T05:29:56.434Z,101483.94
2018-12-25T05:32:53.020Z,101486.66
2018-12-25T05:35:49.474Z,101487.05
2018-12-25T05:38:44.927Z,101490.90
2018-12-25T05:41:41.595Z,101502.05
2018-12-25T05:44:38.108Z,101496.66
2018-12-25T05:47:34.421Z,101500.52
2018-12-25T05:50:30.933Z,101503.16
2018-12-25T05:53:26.392Z,101509.70
2018-12-25T05:56:24.341Z,101514.50
2018-12-25T05:59:20.702Z,101506.95
2018-12-25T06:02:17.187Z,101515.55
2018-12-25T06:05:14.228Z,101509.19
2018-12-25T06:08:10.375Z,101501.30
2018-12-25T06:11:08.372Z,101509.13
2018-12-25T06:14:05.650Z,101513.80
2018-12-25T06:17:02.497Z,101503.27
2018-12-25T06:19:59.297Z,101501.44
2018-12-25T06:22:56.291Z,101495.44
2018-12-25T06:25:52.913Z,101496.32
2018-12-25T06:28:48.917Z,101492.08
2018-12-25T06:31:45.482Z,101494.00
2018-12-25T06:34:42.193Z,101497.27
2018-12-25T06:37:40.352Z,101492.02
2018-12-25T06:40:38.599Z,101502.48
2018-12-25T06:43:34.363Z,101502.67
2018-12-25T06:46:31.107Z,101492.80
2018-12-25T06:49:27.821Z,101497.34
2018-12-25T06:52:25.642Z,101507.55
2018-12-25T06:55:21.622Z,101501.77
2018-12-25T06:58:18.133Z,101497.70
2018-12-25T07:01:14.591Z,101491.62
2018-12-25T07:04:14.437Z,101487.51
2018-12-25T07:07:13.824Z,101489.87
2018-12-25T07:10:10.248Z,101481.36
2018-12-25T07:13:05.436Z,101480.91
2018-12-25T07:16:02.758Z,101479.27
2018-12-25T07:18:59.480Z,101471.09
2018-12-25T07:21:55.396Z,101483.34
2018-12-25T07:24:51.734Z,101495.41
2018-12-25T07:27:47.624Z,101491.89
2018-12-25T07:30:44.251Z,101497.23
2018-12-25T07:33:40.958Z,101496.12
2018-12-25T07:36:37.554Z,101495.81
2018-12-25T07:39:34.138Z,101494.20
2018-12-25T07:42:29.943Z,101479.88
2018-12-25T07:45:26.481Z,101471.58
2018-12-25T07:48:22.700Z,101462.36
2018-12-25T07:51:20.880Z,101455.46
2018-12-25T07:54:17.023Z,101443.37
2018-12-25T07:57:12.835Z,101469.72
2018-12-25T08:00:27.754Z,101484.04
2018-12-25T08:03:23.248Z,101466.34
2018-12-25T08:06:19.213Z,101460.25
2018-12-25T08:09:15.583Z,101453.81
2018-12-25T08:12:11.645Z,101456.58
2018-12-25T08:15:07.533Z,101460.17
2018-12-25T08:18:04.414Z,101452.63
2018-12-25T08:21:00.236Z,101456.54
2018-12-25T08:23:56.179Z,101460.52
2018-12-25T08:26:52.945Z,101463.98
2018-12-25T08:29:48.748Z,101463.81
2018-12-25T08:32:45.551Z,101457.32
2018-12-25T08:35:41.619Z,101470.33
2018-12-25T08:38:38.131Z,101454.51
2018-12-25T08:41:33.979Z,101443.48
2018-12-25T08:44:31.427Z,101452.87
2018-12-25T08:47:32.575Z,101444.77
2018-12-25T08:50:29.098Z,101447.51
2018-12-25T08:53:24.631Z,101446.81
2018-12-25T08:56:22.894Z,101450.99
2018-12-25T08:59:19.751Z,101448.22
2018-12-25T09:02:16.357Z,101457.72
2018-12-25T09:05:12.814Z,101459.01
2018-12-25T09:08:12.540Z,101448.41
2018-12-25T09:11:21.938Z,101455.98
2018-12-25T09:14:18.332Z,101455.30
2018-12-25T09:17:13.768Z,101459.27
2018-12-25T09:20:10.003Z,101460.33
2018-12-25T09:23:08.631Z,101464.00
2018-12-25T09:26:05.439Z,101474.11
2018-12-25T09:29:02.180Z,101481.63
2018-12-25T09:31:59.484Z,101478.83
2018-12-25T09:34:59.126Z,101491.48
2018-12-25T09:37:54.868Z,101489.92
2018-12-25T09:40:51.451Z,101506.87
2018-12-25T09:43:47.192Z,101518.20
2018-12-25T09:46:43.878Z,101501.42
2018-12-25T09:49:39.427Z,101507.52
2018-12-25T09:52:36.581Z,101502.34
2018-12-25T09:55:32.199Z,101497.05
2018-12-25T09:58:27.800Z,101487.59
2018-12-25T10:01:23.801Z,101487.44
2018-12-25T10:04:20.207Z,101490.81
2018-12-25T10:07:17.240Z,101479.23
2018-12-25T10:10:14.004Z,101485.42
2018-12-25T10:13:09.833Z,101492.00
2018-12-25T10:16:06.341Z,101501.55
2018-12-25T10:19:02.637Z,101500.20
2018-12-25T10:22:02.875Z,101500.76
2018-12-25T10:24:56.477Z,101502.69
2018-12-25T10:27:54.211Z,101486.64
2018-12-25T10:30:53.751Z,101485.91
2018-12-25T10:33:49.679Z,101483.69
2018-12-25T10:36:46.121Z,101483.14
2018-12-25T10:39:42.453Z,101480.86
2018-12-25T10:42:39.024Z,101470.16
2018-12-25T10:45:35.907Z,101469.41
2018-12-25T10:48:33.744Z,101459.63
2018-12-25T10:51:31.236Z,101457.95
2018-12-25T10:54:27.886Z,101448.06
2018-12-25T10:57:24.426Z,101439.80
2018-12-25T11:00:20.722Z,101441.91
2018-12-25T11:03:16.511Z,101442.02
2018-12-25T11:06:12.349Z,101448.02
2018-12-25T11:09:09.149Z,101442.11
2018-12-25T11:12:04.836Z,101439.19
2018-12-25T11:15:00.463Z,101434.81
2018-12-25T11:17:56.431Z,101430.41
2018-12-25T11:20:52.035Z,101420.95
2018-12-25T11:23:48.432Z,101420.23
2018-12-25T11:26:45.229Z,101417.13
2018-12-25T11:29:41.709Z,101417.39
2018-12-25T11:32:39.804Z,101415.25
2018-12-25T11:35:35.652Z,101410.86
2018-12-25T11:38:33.512Z,101409.41
2018-12-25T11:41:30.201Z,101408.71
2018-12-25T11:44:26.194Z,101395.52
2018-12-25T11:47:22.787Z,101399.91
2018-12-25T11:50:19.530Z,101403.58
2018-12-25T11:53:16.272Z,101392.42
2018-12-25T11:56:12.964Z,101404.30
2018-12-25T11:59:09.374Z,101413.78
2018-12-25T12:02:06.053Z,101417.53
2018-12-25T12:05:01.988Z,101410.95
2018-12-25T12:07:58.680Z,101414.22
2018-12-25T12:10:54.974Z,101419.80
2018-12-25T12:13:50.945Z,101418.53
2018-12-25T12:16:47.565Z,101411.25
2018-12-25T12:19:44.328Z,101407.30
2018-12-25T12:22:40.903Z,101411.83
2018-12-25T12:25:37.531Z,101412.48
2018-12-25T12:28:33.161Z,101413.69
2018-12-25T12:31:28.639Z,101413.76
2018-12-25T12:34:25.825Z,101406.09
2018-12-25T12:37:21.719Z,101409.55
2018-12-25T12:40:18.297Z,101416.42
2018-12-25T12:43:14.986Z,101415.50
2018-12-25T12:46:12.137Z,101413.45
2018-12-25T12:49:09.138Z,101420.97
2018-12-25T12:52:05.717Z,101426.68
2018-12-25T12:55:02.630Z,101414.69
2018-12-25T12:57:59.144Z,101417.69
2018-12-25T13:00:54.857Z,101410.55
2018-12-25T13:03:53.496Z,101420.44
2018-12-25T13:06:50.014Z,101425.91
2018-12-25T13:09:45.986Z,101428.27
2018-12-25T13:12:42.535Z,101437.02
2018-12-25T13:15:38.068Z,101430.53
2018-12-25T13:18:34.002Z,101433.64
2018-12-25T13:21:40.121Z,101437.98
2018-12-25T13:24:35.943Z,101438.06
2018-12-25T13:27:32.590Z,101438.98
2018-12-25T13:30:28.358Z,101431.42
2018-12-25T13:33:24.052Z,101441.27
2018-12-25T13:36:20.601Z,101434.66
2018-12-25T13:39:17.444Z,101446.86
2018-12-25T13:42:14.696Z,101450.45
2018-12-25T13:45:10.345Z,101452.98
2018-12-25T13:48:06.997Z,101458.94
2018-12-25T13:51:03.733Z,101459.63
2018-12-25T13:53:59.497Z,101463.17
2018-12-25T13:56:56.415Z,101467.05
2018-12-25T13:59:53.200Z,101466.09
2018-12-25T14:03:00.761Z,101467.94
2018-12-25T14:05:56.540Z,101474.42
2018-12-25T14:08:52.775Z,101476.77
2018-12-25T14:11:49.027Z,101482.76
2018-12-25T14:14:45.627Z,101480.77
2018-12-25T14:17:42.460Z,101486.31
2018-12-25T14:20:38.390Z,101484.08
2018-12-25T14:23:33.864Z,101491.98
2018-12-25T14:26:29.864Z,101487.68
2018-12-25T14:29:25.503Z,101488.49
2018-12-25T14:32:22.259Z,101497.16
2018-12-25T14:35:17.775Z,101501.30
2018-12-25T14:38:14.406Z,101486.47
2018-12-25T14:41:10.941Z,101483.11
2018-12-25T14:44:07.740Z,101478.11
2018-12-25T14:47:04.433Z,101483.44
2018-12-25T14:50:01.841Z,101492.19
2018-12-25T14:52:57.663Z,101492.56
2018-12-25T14:55:55.413Z,101486.22
2018-12-25T14:58:50.998Z,101485.53
2018-12-25T15:01:47.947Z,101481.41
2018-12-25T15:04:44.616Z,101496.94
2018-12-25T15:07:43.430Z,101486.05
2018-12-25T15:10:40.238Z,101498.42
2018-12-25T15:13:36.473Z,101500.12
2018-12-25T15:16:32.132Z,101500.59
2018-12-25T15:19:28.849Z,101499.91
2018-12-25T15:22:25.285Z,101494.96
2018-12-25T15:25:20.904Z,101495.55
2018-12-25T15:28:17.853Z,101482.45
2018-12-25T15:31:13.607Z,101491.02
2018-12-25T15:34:10.442Z,101495.80
2018-12-25T15:37:06.239Z,101486.73
2018-12-25T15:40:02.645Z,101493.03
2018-12-25T15:42:59.375Z,101488.77
2018-12-25T15:45:55.225Z,101486.25
2018-12-25T15:48:50.959Z,101483.81
2018-12-25T15:51:47.843Z,101487.24
2018-12-25T15:54:44.535Z,101488.18
2018-12-25T15:57:41.268Z,101484.78
2018-12-25T16:00:38.182Z,101489.96
2018-12-25T16:03:33.946Z,101487.09
2018-12-25T16:06:31.380Z,101492.88
2018-12-25T16:09:27.811Z,101493.31
2018-12-25T16:12:23.761Z,101489.29
2018-12-25T16:15:20.537Z,101489.16
2018-12-25T16:18:18.426Z,101496.00
2018-12-25T16:21:15.087Z,101494.50
2018-12-25T16:24:11.738Z,101498.47
2018-12-25T16:27:08.448Z,101485.15
2018-12-25T16:30:04.929Z,101479.89
2018-12-25T16:33:01.603Z,101480.32
2018-12-25T16:35:58.387Z,101479.84
2018-12-25T16:38:55.252Z,101482.75
2018-12-25T16:41:51.680Z,101480.20
2018-12-25T16:44:48.409Z,101485.77
2018-12-25T16:47:44.983Z,101488.60
2018-12-25T16:50:41.696Z,101492.69
2018-12-25T16:53:41.871Z,101493.53
2018-12-25T16:56:37.301Z,101495.07
2018-12-25T16:59:34.184Z,101504.99
2018-12-25T17:02:30.220Z,101498.23
2018-12-25T17:05:26.060Z,101507.97
2018-12-25T17:08:22.775Z,101514.14
2018-12-25T17:11:18.940Z,101508.73
2018-12-25T17:14:15.848Z,101514.80
2018-12-25T17:17:12.747Z,101513.86
2018-12-25T17:20:10.647Z,101510.98
2018-12-25T17:23:07.079Z,101506.34
2018-12-25T17:26:03.741Z,101506.64
2018-12-25T17:28:59.237Z,101507.30
2018-12-25T17:31:56.703Z,101505.26
2018-12-25T17:34:52.439Z,101499.52
2018-12-25T17:37:49.086Z,101506.44
2018-12-25T17:40:45.907Z,101504.87
2018-12-25T17:43:42.593Z,101500.25
2018-12-25T17:46:39.383Z,101497.49
2018-12-25T17:49:35.498Z,101504.09
2018-12-25T17:52:32.694Z,101503.27
2018-12-25T17:55:28.623Z,101499.81
2018-12-25T17:58:25.280Z,101492.34
2018-12-25T18:01:21.687Z,101506.04
2018-12-25T18:04:18.125Z,101501.48
2018-12-25T18:07:14.595Z,101506.56
2018-12-25T18:10:13.465Z,101506.98
2018-12-25T18:13:10.230Z,101515.94
2018-12-25T18:16:06.393Z,101514.94
2018-12-25T18:19:02.214Z,101523.02
2018-12-25T18:21:57.729Z,101527.74
2018-12-25T18:24:54.495Z,101531.45
2018-12-25T18:27:51.588Z,101536.34
2018-12-25T18:30:48.115Z,101540.22
2018-12-25T18:33:44.823Z,101552.45
2018-12-25T18:36:42.797Z,101536.70
2018-12-25T18:39:39.445Z,101543.05
2018-12-25T18:42:37.020Z,101556.38
2018-12-25T18:45:33.650Z,101551.17
2018-12-25T18:48:30.198Z,101557.17
2018-12-25T18:51:26.948Z,101545.27
2018-12-25T18:54:27.742Z,101549.86
2018-12-25T18:57:20.043Z,101558.15
2018-12-25T19:00:15.578Z,101558.47
2018-12-25T19:03:13.536Z,101562.90
2018-12-25T19:06:10.166Z,101555.41
2018-12-25T19:09:08.432Z,101559.58
2018-12-25T19:12:04.979Z,101553.74
2018-12-25T19:15:25.858Z,101558.84
2018-12-25T19:18:22.252Z,101555.73
2018-12-25T19:21:18.875Z,101561.44
2018-12-25T19:24:15.672Z,101558.05
2018-12-25T19:27:11.531Z,101551.22
2018-12-25T19:30:09.002Z,101554.52
2018-12-25T19:33:06.536Z,101546.84
2018-12-25T19:36:02.369Z,101551.33
2018-12-25T19:38:58.843Z,101545.20
2018-12-25T19:41:55.513Z,101545.17
2018-12-25T19:44:52.351Z,101535.42
2018-12-25T19:47:48.820Z,101525.47
2018-12-25T19:50:44.487Z,101527.75
2018-12-25T19:53:43.925Z,101524.87
2018-12-25T19:56:40.149Z,101532.37
2018-12-25T19:59:36.693Z,101545.88
2018-12-25T20:02:32.859Z,101538.79
2018-12-25T20:06:39.029Z,101539.70
2018-12-25T20:10:34.920Z,101541.42
2018-12-25T20:14:31.191Z,101538.37
2018-12-25T20:18:25.462Z,101537.43
2018-12-25T20:22:22.465Z,101534.68
2018-12-25T20:26:17.099Z,101528.77
2018-12-25T20:30:26.633Z,101520.83
2018-12-25T20:34:01.516Z,101518.84
2018-12-25T20:37:45.428Z,101513.85
2018-12-25T20:41:56.849Z,101517.91
2018-12-25T20:45:52.690Z,101522.50
2018-12-25T20:49:39.537Z,101514.80
2018-12-25T20:53:51.852Z,101521.59
2018-12-25T20:58:00.991Z,101515.80
2018-12-25T21:01:44.644Z,101519.02
2018-12-25T21:05:55.393Z,101519.06
2018-12-25T21:09:52.771Z,101515.05
2018-12-25T21:13:48.587Z,101516.83
2018-12-25T21:18:03.123Z,101506.81
2018-12-25T21:21:56.635Z,101502.20
2018-12-25T21:26:00.341Z,101503.42
2018-12-25T21:28:56.303Z,101495.77
2018-12-25T21:31:52.431Z,101495.90
2018-12-25T21:34:48.790Z,101499.45
2018-12-25T21:37:46.053Z,101497.26
2018-12-25T21:40:42.145Z,101504.63
2018-12-25T21:43:39.804Z,101501.56
2018-12-25T21:46:37.015Z,101505.63
2018-12-25T21:49:33.737Z,101498.30
2018-12-25T21:52:29.894Z,101504.68
2018-12-25T21:55:26.664Z,101502.48
2018-12-25T21:58:23.378Z,101496.91
2018-12-25T22:01:21.812Z,101489.22
2018-12-25T22:04:19.186Z,101486.31
2018-12-25T22:07:15.992Z,101486.73
2018-12-25T22:10:12.675Z,101475.86
2018-12-25T22:13:09.406Z,101477.76
2018-12-25T22:16:05.076Z,101479.63
2018-12-25T22:19:04.977Z,101474.32
2018-12-25T22:22:01.175Z,101467.63
2018-12-25T22:24:58.121Z,101467.42
2018-12-25T22:27:54.147Z,101463.94
2018-12-25T22:30:51.073Z,101458.38
2018-12-25T22:33:47.866Z,101468.51
2018-12-25T22:36:44.426Z,101454.63
2018-12-25T22:39:40.962Z,101449.63
2018-12-25T22:42:37.777Z,101449.78
2018-12-25T22:45:34.480Z,101448.27
2018-12-25T22:48:31.176Z,101445.13
2018-12-25T22:51:27.490Z,101439.12
2018-12-25T22:54:24.240Z,101433.14
2018-12-25T22:57:19.812Z,101429.63
2018-12-25T23:00:19.416Z,101427.55
2018-12-25T23:03:17.298Z,101421.73
2018-12-25T23:06:13.861Z,101429.33
2018-12-25T23:09:10.765Z,101424.89
2018-12-25T23:12:08.748Z,101424.05
2018-12-25T23:15:08.245Z,101423.77
2018-12-25T23:18:03.875Z,101414.64
2018-12-25T23:20:59.931Z,101423.36
2018-12-25T23:23:55.787Z,101420.02
2018-12-25T23:26:52.091Z,101418.59
2018-12-25T23:29:52.179Z,101416.22
2018-12-25T23:32:47.651Z,101423.17
2018-12-25T23:35:44.650Z,101423.46
2018-12-25T23:38:41.411Z,101425.92
2018-12-25T23:41:39.140Z,101421.14
2018-12-25T23:44:34.898Z,101439.02
2018-12-25T23:47:31.624Z,101429.74
2018-12-25T23:50:27.382Z,101431.97
2018-12-25T23:53:24.899Z,101433.29
2018-12-25T23:56:21.321Z,101429.77
2018-12-25T23:59:17.877Z,101428.58
